Bluefin — WDE9397 — position and weather

sailwx.info

Track history (hours):
 
Tides and Currents Weather Stations Pressure Air Temp Water Temp Dewpoint Dewpoint Depression Visibility Wind Speed Wind Dir Waves Ship Positions

Bluefin

Owner: Penn Maritime Inc., SEATTLE, WA. More information available from US FCC via Universal Licensing System and Coast Guard Vessel Documentation Center.

Last reported at 2014-Oct-31 14:26 UTC. Time now 2014-Oct-31 18:39 UTC.
Position N 40°38' W 074°12'.

Length 166 m; draft 6.6 m.

Type: Towing. MMSI: 367416750.

Date/timePositionNaut miles runAvg speedWind from/ knotsBaromVisibWave heightAir tempDewpointWater temp
2014-Oct-31 14:26N 40°38' W 074°12'0 0.0
2014-Oct-31 10:23N 40°38' W 074°12'0 0.0
2014-Oct-31 05:17N 40°38' W 074°12'0 0.0
2014-Oct-30 13:22N 40°38' W 074°12'3 4.2
2014-Oct-30 12:33N 40°39' W 074°08'4 3.7
2014-Oct-30 11:33N 40°39' W 074°03'0 0.0
2014-Oct-30 10:33N 40°39' W 074°03'0 0.0
2014-Oct-30 09:33N 40°39' W 074°03'0 0.0
2014-Oct-30 08:33N 40°39' W 074°03'0 0.1
2014-Oct-30 07:33N 40°39' W 074°03'0 0.1
2014-Oct-30 06:33N 40°39' W 074°03'0 0.0
2014-Oct-30 05:33N 40°39' W 074°03'0 0.0
2014-Oct-30 04:33N 40°39' W 074°03'0 0.0
2014-Oct-30 03:33N 40°39' W 074°03'0 0.1
2014-Oct-30 02:33N 40°39' W 074°03'0 0.0
2014-Oct-30 01:33N 40°39' W 074°03'0 0.0
2014-Oct-30 00:33N 40°39' W 074°03'0 0.0
2014-Oct-29 23:33N 40°39' W 074°03'0 0.0
2014-Oct-29 22:33N 40°39' W 074°03'0 0.0
2014-Oct-29 21:33N 40°39' W 074°03'0 0.0
2014-Oct-29 20:33N 40°39' W 074°03'0 0.1
2014-Oct-29 19:33N 40°39' W 074°03'0 0.1
2014-Oct-29 18:33N 40°39' W 074°03'0 0.1
2014-Oct-29 17:33N 40°39' W 074°03'0 0.0
2014-Oct-29 16:33N 40°39' W 074°03'0 0.0
2014-Oct-29 15:33N 40°39' W 074°03'0 0.0
2014-Oct-29 14:33N 40°39' W 074°03'0 0.1
2014-Oct-29 13:33N 40°39' W 074°03'0 0.1
2014-Oct-29 12:33N 40°39' W 074°03'0 0.0
2014-Oct-29 11:33N 40°39' W 074°03'0 0.0
2014-Oct-29 10:33N 40°39' W 074°03'0 0.0
2014-Oct-29 09:33N 40°39' W 074°03'0 0.0
2014-Oct-29 08:33N 40°39' W 074°03'0 0.1
2014-Oct-29 07:33N 40°39' W 074°03'6 6.1
2014-Oct-29 06:33N 40°44' W 073°58'7 6.7
2014-Oct-29 05:33N 40°48' W 073°51'6 6.3
2014-Oct-29 04:33N 40°52' W 073°45'7 6.8
2014-Oct-29 03:33N 40°55' W 073°37'7 6.7
2014-Oct-29 02:33N 40°59' W 073°29'6 6.5
2014-Oct-29 01:34N 41°01' W 073°21'7 7.2
2014-Oct-29 00:33N 41°01' W 073°11'7 7.3
2014-Oct-28 23:33N 41°02' W 073°02'7 7.2
2014-Oct-28 22:34N 41°01' W 072°52'7 6.8
2014-Oct-28 21:33N 41°01' W 072°43'3 3.4
2014-Oct-28 20:33N 41°00' W 072°39'0 0.0
2014-Oct-28 19:33N 41°00' W 072°39'0 0.0
2014-Oct-28 18:33N 41°00' W 072°39'0 0.0
2014-Oct-28 17:34N 41°00' W 072°39'0 0.0
2014-Oct-28 16:34N 41°00' W 072°39'0 0.0
2014-Oct-28 15:33N 41°00' W 072°39'0 0.0
2014-Oct-28 14:33N 41°00' W 072°39'0 0.0
2014-Oct-28 13:33N 41°00' W 072°39'0 0.0
2014-Oct-28 12:33N 41°00' W 072°39'0 0.0
2014-Oct-28 11:34N 41°00' W 072°39'0 0.0
2014-Oct-28 10:33N 41°00' W 072°39'0 0.0
2014-Oct-28 09:33N 41°00' W 072°39'0 0.0
2014-Oct-28 08:33N 41°00' W 072°39'0 0.0
2014-Oct-28 07:33N 41°00' W 072°39'0 0.0
2014-Oct-28 06:33N 41°00' W 072°39'0 0.0
2014-Oct-28 05:34N 41°00' W 072°39'0 0.0
2014-Oct-28 04:33N 41°00' W 072°39'0 0.0
2014-Oct-28 03:33N 41°00' W 072°39'1 1.1
2014-Oct-28 02:33N 41°01' W 072°38'1 0.8
2014-Oct-28 01:33N 41°02' W 072°38'0 0.0
2014-Oct-28 00:34N 41°02' W 072°38'0 0.0
2014-Oct-27 23:33N 41°02' W 072°38'0 0.0
2014-Oct-27 22:34N 41°02' W 072°38'0 0.0
2014-Oct-27 21:33N 41°02' W 072°38'0 0.0
2014-Oct-27 20:33N 41°02' W 072°38'0 0.0
2014-Oct-27 19:33N 41°02' W 072°38'0 0.0
2014-Oct-27 18:33N 41°02' W 072°38'0 0.1
2014-Oct-27 17:33N 41°02' W 072°38'0 0.0
2014-Oct-27 16:34N 41°02' W 072°38'0 0.0
2014-Oct-27 15:34N 41°02' W 072°38'0 0.0
2014-Oct-27 14:34N 41°02' W 072°38'0 0.0
2014-Oct-27 13:33N 41°02' W 072°38'0 0.0
2014-Oct-27 12:33N 41°02' W 072°38'0 0.0
2014-Oct-27 11:34N 41°02' W 072°38'0 0.0
2014-Oct-27 10:33N 41°02' W 072°38'0 0.0
2014-Oct-27 09:34N 41°02' W 072°38'0 0.0
2014-Oct-27 08:34N 41°02' W 072°38'0 0.0
2014-Oct-27 07:34N 41°02' W 072°38'0 0.0
2014-Oct-27 06:33N 41°02' W 072°38'0 0.0
2014-Oct-27 05:33N 41°02' W 072°38'0 0.0
2014-Oct-27 04:34N 41°02' W 072°38'0 0.0
2014-Oct-27 03:34N 41°02' W 072°38'0 0.0
2014-Oct-27 02:33N 41°02' W 072°38'0 0.0
2014-Oct-27 01:33N 41°02' W 072°38'0 0.0
2014-Oct-27 00:34N 41°02' W 072°38'0 0.0
2014-Oct-26 23:34N 41°02' W 072°38'0 0.0
2014-Oct-26 22:33N 41°02' W 072°38'0 0.0
2014-Oct-26 21:33N 41°02' W 072°38'0 0.3
2014-Oct-26 20:33N 41°02' W 072°38'1111.3
2014-Oct-26 19:33N 41°09' W 072°49'9 8.8
2014-Oct-26 18:32N 41°18' W 072°54'0 0.0
2014-Oct-26 17:33N 41°18' W 072°54'0 0.0
2014-Oct-26 16:33N 41°18' W 072°54'0 0.0
2014-Oct-26 15:33N 41°18' W 072°54'0 0.0
2014-Oct-26 14:33N 41°18' W 072°54'0 0.0
2014-Oct-26 13:33N 41°18' W 072°54'0 0.0
2014-Oct-26 12:33N 41°18' W 072°54'0 0.0
2014-Oct-26 11:33N 41°18' W 072°54'0 0.0
2014-Oct-26 10:33N 41°18' W 072°54'0 0.0
2014-Oct-26 09:34N 41°18' W 072°54'0 0.0
2014-Oct-26 08:34N 41°18' W 072°54'0 0.0
2014-Oct-26 07:34N 41°18' W 072°54'0 0.0
2014-Oct-26 06:33N 41°18' W 072°54'0 0.0
2014-Oct-26 05:33N 41°18' W 072°54'0 0.0
2014-Oct-26 04:33N 41°18' W 072°54'4 4.0
2014-Oct-26 03:33N 41°14' W 072°55'7 6.6
2014-Oct-26 02:33N 41°09' W 073°00'8 7.6
2014-Oct-26 01:33N 41°05' W 073°09'1010.4
2014-Oct-26 00:33N 41°01' W 073°22'2310.8
2014-Oct-25 22:25N 40°48' W 073°47'8 8.7
2014-Oct-25 21:31N 40°46' W 073°57'6 5.6
2014-Oct-25 20:29N 40°41' W 074°01'7 7.1
2014-Oct-25 19:26N 40°33' W 074°02'6 7.3
2014-Oct-25 18:33N 40°29' W 073°55'6 6.1
2014-Oct-25 17:33N 40°24' W 073°53'6 6.5
2014-Oct-25 16:34N 40°17' W 073°54'15 7.1
2014-Oct-25 14:25N 40°02' W 073°56'7 7.8
2014-Oct-25 13:30N 39°55' W 073°57'8 7.7
2014-Oct-25 12:32N 39°47' W 073°58'8 8.5
2014-Oct-25 11:33N 39°40' W 074°02'9 9.2
2014-Oct-25 10:33N 39°31' W 074°07'9 9.0
2014-Oct-25 09:31N 39°23' W 074°13'28 9.1
2014-Oct-25 06:29N 39°03' W 074°36'32 6.1
2014-Oct-25 01:18N 39°10' W 075°16'7 9.1
2014-Oct-25 00:33N 39°16' W 075°20'1010.3
2014-Oct-24 23:33N 39°24' W 075°29'1110.8
2014-Oct-24 22:33N 39°34' W 075°33'1111.4
2014-Oct-24 21:33N 39°45' W 075°29'6 0.6
2014-Oct-24 12:33N 39°49' W 075°24'9 9.4
2014-Oct-24 11:33N 39°41' W 075°31'8 7.7
2014-Oct-24 10:33N 39°34' W 075°33'1111.1
2014-Oct-24 09:33N 39°32' W 075°47'23 9.8
2014-Oct-24 07:13N 39°20' W 076°12'6 9.8
2014-Oct-24 06:33N 39°13' W 076°15'7 7.4
2014-Oct-24 05:33N 39°10' W 076°23'10 9.8
2014-Oct-24 04:33N 39°15' W 076°34'0 0.4
2014-Oct-24 03:33N 39°15' W 076°34'0 0.0
2014-Oct-24 02:33N 39°15' W 076°34'0 0.0
2014-Oct-24 01:33N 39°15' W 076°34'0 0.0
2014-Oct-24 00:33N 39°15' W 076°34'0 0.0
2014-Oct-23 23:33N 39°15' W 076°34'0 0.0
2014-Oct-23 22:33N 39°15' W 076°34'2 1.9
2014-Oct-23 21:33N 39°14' W 076°32'1110.0
2014-Oct-23 20:25N 39°09' W 076°19'3010.5
2014-Oct-23 17:30N 39°32' W 075°52'1111.2
2014-Oct-23 16:33N 39°33' W 075°39'7 6.7
2014-Oct-23 15:33N 39°39' W 075°33'10 8.5
2014-Oct-23 14:25N 39°47' W 075°27'11 0.3
2014-Oct-21 23:23N 39°52' W 075°14'  
Track history (hours):
 
Tides and Currents Weather Stations Pressure Air Temp Water Temp Dewpoint Dewpoint Depression Visibility Wind Speed Wind Dir Waves Ship Positions

Bluefin

Owner: Penn Maritime Inc., SEATTLE, WA. More information available from US FCC via Universal Licensing System and Coast Guard Vessel Documentation Center.

Last reported at 2014-Oct-31 14:26 UTC. Time now 2014-Oct-31 18:39 UTC.
Position N 40°38' W 074°12'.

Length 166 m; draft 6.6 m.

Type: Towing. MMSI: 367416750.

Date/timePositionNaut miles runAvg speedWind from/ knotsBaromVisibWave heightAir tempDewpointWater temp
2014-Oct-31 14:26N 40°38' W 074°12'0 0.0
2014-Oct-31 10:23N 40°38' W 074°12'0 0.0
2014-Oct-31 05:17N 40°38' W 074°12'0 0.0
2014-Oct-30 13:22N 40°38' W 074°12'3 4.2
2014-Oct-30 12:33N 40°39' W 074°08'4 3.7
2014-Oct-30 11:33N 40°39' W 074°03'0 0.0
2014-Oct-30 10:33N 40°39' W 074°03'0 0.0
2014-Oct-30 09:33N 40°39' W 074°03'0 0.0
2014-Oct-30 08:33N 40°39' W 074°03'0 0.1
2014-Oct-30 07:33N 40°39' W 074°03'0 0.1
2014-Oct-30 06:33N 40°39' W 074°03'0 0.0
2014-Oct-30 05:33N 40°39' W 074°03'0 0.0
2014-Oct-30 04:33N 40°39' W 074°03'0 0.0
2014-Oct-30 03:33N 40°39' W 074°03'0 0.1
2014-Oct-30 02:33N 40°39' W 074°03'0 0.0
2014-Oct-30 01:33N 40°39' W 074°03'0 0.0
2014-Oct-30 00:33N 40°39' W 074°03'0 0.0
2014-Oct-29 23:33N 40°39' W 074°03'0 0.0
2014-Oct-29 22:33N 40°39' W 074°03'0 0.0
2014-Oct-29 21:33N 40°39' W 074°03'0 0.0
2014-Oct-29 20:33N 40°39' W 074°03'0 0.1
2014-Oct-29 19:33N 40°39' W 074°03'0 0.1
2014-Oct-29 18:33N 40°39' W 074°03'0 0.1
2014-Oct-29 17:33N 40°39' W 074°03'0 0.0
2014-Oct-29 16:33N 40°39' W 074°03'0 0.0
2014-Oct-29 15:33N 40°39' W 074°03'0 0.0
2014-Oct-29 14:33N 40°39' W 074°03'0 0.1
2014-Oct-29 13:33N 40°39' W 074°03'0 0.1
2014-Oct-29 12:33N 40°39' W 074°03'0 0.0
2014-Oct-29 11:33N 40°39' W 074°03'0 0.0
2014-Oct-29 10:33N 40°39' W 074°03'0 0.0
2014-Oct-29 09:33N 40°39' W 074°03'0 0.0
2014-Oct-29 08:33N 40°39' W 074°03'0 0.1
2014-Oct-29 07:33N 40°39' W 074°03'6 6.1
2014-Oct-29 06:33N 40°44' W 073°58'7 6.7
2014-Oct-29 05:33N 40°48' W 073°51'6 6.3
2014-Oct-29 04:33N 40°52' W 073°45'7 6.8
2014-Oct-29 03:33N 40°55' W 073°37'7 6.7
2014-Oct-29 02:33N 40°59' W 073°29'6 6.5
2014-Oct-29 01:34N 41°01' W 073°21'7 7.2
2014-Oct-29 00:33N 41°01' W 073°11'7 7.3
2014-Oct-28 23:33N 41°02' W 073°02'7 7.2
2014-Oct-28 22:34N 41°01' W 072°52'7 6.8
2014-Oct-28 21:33N 41°01' W 072°43'3 3.4
2014-Oct-28 20:33N 41°00' W 072°39'0 0.0
2014-Oct-28 19:33N 41°00' W 072°39'0 0.0
2014-Oct-28 18:33N 41°00' W 072°39'0 0.0
2014-Oct-28 17:34N 41°00' W 072°39'0 0.0
2014-Oct-28 16:34N 41°00' W 072°39'0 0.0
2014-Oct-28 15:33N 41°00' W 072°39'0 0.0
2014-Oct-28 14:33N 41°00' W 072°39'0 0.0
2014-Oct-28 13:33N 41°00' W 072°39'0 0.0
2014-Oct-28 12:33N 41°00' W 072°39'0 0.0
2014-Oct-28 11:34N 41°00' W 072°39'0 0.0
2014-Oct-28 10:33N 41°00' W 072°39'0 0.0
2014-Oct-28 09:33N 41°00' W 072°39'0 0.0
2014-Oct-28 08:33N 41°00' W 072°39'0 0.0
2014-Oct-28 07:33N 41°00' W 072°39'0 0.0
2014-Oct-28 06:33N 41°00' W 072°39'0 0.0
2014-Oct-28 05:34N 41°00' W 072°39'0 0.0
2014-Oct-28 04:33N 41°00' W 072°39'0 0.0
2014-Oct-28 03:33N 41°00' W 072°39'1 1.1
2014-Oct-28 02:33N 41°01' W 072°38'1 0.8
2014-Oct-28 01:33N 41°02' W 072°38'0 0.0
2014-Oct-28 00:34N 41°02' W 072°38'0 0.0
2014-Oct-27 23:33N 41°02' W 072°38'0 0.0
2014-Oct-27 22:34N 41°02' W 072°38'0 0.0
2014-Oct-27 21:33N 41°02' W 072°38'0 0.0
2014-Oct-27 20:33N 41°02' W 072°38'0 0.0
2014-Oct-27 19:33N 41°02' W 072°38'0 0.0
2014-Oct-27 18:33N 41°02' W 072°38'0 0.1
2014-Oct-27 17:33N 41°02' W 072°38'0 0.0
2014-Oct-27 16:34N 41°02' W 072°38'0 0.0
2014-Oct-27 15:34N 41°02' W 072°38'0 0.0
2014-Oct-27 14:34N 41°02' W 072°38'0 0.0
2014-Oct-27 13:33N 41°02' W 072°38'0 0.0
2014-Oct-27 12:33N 41°02' W 072°38'0 0.0
2014-Oct-27 11:34N 41°02' W 072°38'0 0.0
2014-Oct-27 10:33N 41°02' W 072°38'0 0.0
2014-Oct-27 09:34N 41°02' W 072°38'0 0.0
2014-Oct-27 08:34N 41°02' W 072°38'0 0.0
2014-Oct-27 07:34N 41°02' W 072°38'0 0.0
2014-Oct-27 06:33N 41°02' W 072°38'0 0.0
2014-Oct-27 05:33N 41°02' W 072°38'0 0.0
2014-Oct-27 04:34N 41°02' W 072°38'0 0.0
2014-Oct-27 03:34N 41°02' W 072°38'0 0.0
2014-Oct-27 02:33N 41°02' W 072°38'0 0.0
2014-Oct-27 01:33N 41°02' W 072°38'0 0.0
2014-Oct-27 00:34N 41°02' W 072°38'0 0.0
2014-Oct-26 23:34N 41°02' W 072°38'0 0.0
2014-Oct-26 22:33N 41°02' W 072°38'0 0.0
2014-Oct-26 21:33N 41°02' W 072°38'0 0.3
2014-Oct-26 20:33N 41°02' W 072°38'1111.3
2014-Oct-26 19:33N 41°09' W 072°49'9 8.8
2014-Oct-26 18:32N 41°18' W 072°54'0 0.0
2014-Oct-26 17:33N 41°18' W 072°54'0 0.0
2014-Oct-26 16:33N 41°18' W 072°54'0 0.0
2014-Oct-26 15:33N 41°18' W 072°54'0 0.0
2014-Oct-26 14:33N 41°18' W 072°54'0 0.0
2014-Oct-26 13:33N 41°18' W 072°54'0 0.0
2014-Oct-26 12:33N 41°18' W 072°54'0 0.0
2014-Oct-26 11:33N 41°18' W 072°54'0 0.0
2014-Oct-26 10:33N 41°18' W 072°54'0 0.0
2014-Oct-26 09:34N 41°18' W 072°54'0 0.0
2014-Oct-26 08:34N 41°18' W 072°54'0 0.0
2014-Oct-26 07:34N 41°18' W 072°54'0 0.0
2014-Oct-26 06:33N 41°18' W 072°54'0 0.0
2014-Oct-26 05:33N 41°18' W 072°54'0 0.0
2014-Oct-26 04:33N 41°18' W 072°54'4 4.0
2014-Oct-26 03:33N 41°14' W 072°55'7 6.6
2014-Oct-26 02:33N 41°09' W 073°00'8 7.6
2014-Oct-26 01:33N 41°05' W 073°09'1010.4
2014-Oct-26 00:33N 41°01' W 073°22'2310.8
2014-Oct-25 22:25N 40°48' W 073°47'8 8.7
2014-Oct-25 21:31N 40°46' W 073°57'6 5.6
2014-Oct-25 20:29N 40°41' W 074°01'7 7.1
2014-Oct-25 19:26N 40°33' W 074°02'6 7.3
2014-Oct-25 18:33N 40°29' W 073°55'6 6.1
2014-Oct-25 17:33N 40°24' W 073°53'6 6.5
2014-Oct-25 16:34N 40°17' W 073°54'15 7.1
2014-Oct-25 14:25N 40°02' W 073°56'7 7.8
2014-Oct-25 13:30N 39°55' W 073°57'8 7.7
2014-Oct-25 12:32N 39°47' W 073°58'8 8.5
2014-Oct-25 11:33N 39°40' W 074°02'9 9.2
2014-Oct-25 10:33N 39°31' W 074°07'9 9.0
2014-Oct-25 09:31N 39°23' W 074°13'28 9.1
2014-Oct-25 06:29N 39°03' W 074°36'32 6.1
2014-Oct-25 01:18N 39°10' W 075°16'7 9.1
2014-Oct-25 00:33N 39°16' W 075°20'1010.3
2014-Oct-24 23:33N 39°24' W 075°29'1110.8
2014-Oct-24 22:33N 39°34' W 075°33'1111.4
2014-Oct-24 21:33N 39°45' W 075°29'6 0.6
2014-Oct-24 12:33N 39°49' W 075°24'9 9.4
2014-Oct-24 11:33N 39°41' W 075°31'8 7.7
2014-Oct-24 10:33N 39°34' W 075°33'1111.1
2014-Oct-24 09:33N 39°32' W 075°47'23 9.8
2014-Oct-24 07:13N 39°20' W 076°12'6 9.8
2014-Oct-24 06:33N 39°13' W 076°15'7 7.4
2014-Oct-24 05:33N 39°10' W 076°23'10 9.8
2014-Oct-24 04:33N 39°15' W 076°34'0 0.4
2014-Oct-24 03:33N 39°15' W 076°34'0 0.0
2014-Oct-24 02:33N 39°15' W 076°34'0 0.0
2014-Oct-24 01:33N 39°15' W 076°34'0 0.0
2014-Oct-24 00:33N 39°15' W 076°34'0 0.0
2014-Oct-23 23:33N 39°15' W 076°34'0 0.0
2014-Oct-23 22:33N 39°15' W 076°34'2 1.9
2014-Oct-23 21:33N 39°14' W 076°32'1110.0
2014-Oct-23 20:25N 39°09' W 076°19'3010.5
2014-Oct-23 17:30N 39°32' W 075°52'1111.2
2014-Oct-23 16:33N 39°33' W 075°39'7 6.7
2014-Oct-23 15:33N 39°39' W 075°33'10 8.5
2014-Oct-23 14:25N 39°47' W 075°27'11 0.3
2014-Oct-21 23:23N 39°52' W 075°14'  

Dump ship's entire track history